sensor_id;sensor_type;location;lat;lon;timestamp;pressure;altitude;pressure_sealevel;temperature
37452;BMP280;23314;51.114;6.900;2023-02-15T00:00:52;102644.97;;;4.19
37452;BMP280;23314;51.114;6.900;2023-02-15T00:03:20;102647.44;;;4.15
37452;BMP280;23314;51.114;6.900;2023-02-15T00:05:45;102645.88;;;4.14
37452;BMP280;23314;51.114;6.900;2023-02-15T00:08:11;102641.66;;;4.13
37452;BMP280;23314;51.114;6.900;2023-02-15T00:10:36;102641.19;;;4.11
37452;BMP280;23314;51.114;6.900;2023-02-15T00:13:01;102633.88;;;4.08
37452;BMP280;23314;51.114;6.900;2023-02-15T00:15:26;102629.66;;;4.07
37452;BMP280;23314;51.114;6.900;2023-02-15T00:17:52;102620.78;;;4.03
37452;BMP280;23314;51.114;6.900;2023-02-15T00:20:17;102629.06;;;4.01
37452;BMP280;23314;51.114;6.900;2023-02-15T00:22:44;102621.41;;;4.00
37452;BMP280;23314;51.114;6.900;2023-02-15T00:25:09;102627.63;;;3.95
37452;BMP280;23314;51.114;6.900;2023-02-15T00:27:35;102628.69;;;3.94
37452;BMP280;23314;51.114;6.900;2023-02-15T00:30:00;102632.75;;;3.91
37452;BMP280;23314;51.114;6.900;2023-02-15T00:32:27;102628.06;;;3.88
37452;BMP280;23314;51.114;6.900;2023-02-15T00:34:52;102627.56;;;3.86
37452;BMP280;23314;51.114;6.900;2023-02-15T00:37:17;102629.75;;;3.84
37452;BMP280;23314;51.114;6.900;2023-02-15T00:39:43;102618.69;;;3.82
37452;BMP280;23314;51.114;6.900;2023-02-15T00:42:08;102622.75;;;3.79
37452;BMP280;23314;51.114;6.900;2023-02-15T00:44:33;102615.91;;;3.78
37452;BMP280;23314;51.114;6.900;2023-02-15T00:46:59;102627.84;;;3.76
37452;BMP280;23314;51.114;6.900;2023-02-15T00:49:24;102616.81;;;3.74
37452;BMP280;23314;51.114;6.900;2023-02-15T00:51:49;102613.72;;;3.72
37452;BMP280;23314;51.114;6.900;2023-02-15T00:54:15;102611.34;;;3.70
37452;BMP280;23314;51.114;6.900;2023-02-15T00:56:40;102621.16;;;3.70
37452;BMP280;23314;51.114;6.900;2023-02-15T00:59:08;102611.94;;;3.67
37452;BMP280;23314;51.114;6.900;2023-02-15T01:01:34;102615.66;;;3.66
37452;BMP280;23314;51.114;6.900;2023-02-15T01:03:59;102613.34;;;3.64
37452;BMP280;23314;51.114;6.900;2023-02-15T01:06:24;102611.31;;;3.61
37452;BMP280;23314;51.114;6.900;2023-02-15T01:08:50;102608.19;;;3.59
37452;BMP280;23314;51.114;6.900;2023-02-15T01:11:17;102612.50;;;3.55
37452;BMP280;23314;51.114;6.900;2023-02-15T01:13:56;102608.78;;;3.56
37452;BMP280;23314;51.114;6.900;2023-02-15T01:16:23;102604.13;;;3.53
37452;BMP280;23314;51.114;6.900;2023-02-15T01:18:49;102606.75;;;3.53
37452;BMP280;23314;51.114;6.900;2023-02-15T01:21:22;102610.47;;;3.52
37452;BMP280;23314;51.114;6.900;2023-02-15T01:23:48;102614.19;;;3.51
37452;BMP280;23314;51.114;6.900;2023-02-15T01:26:15;102612.97;;;3.48
37452;BMP280;23314;51.114;6.900;2023-02-15T01:28:40;102609.06;;;3.46
37452;BMP280;23314;51.114;6.900;2023-02-15T01:31:11;102597.72;;;3.45
37452;BMP280;23314;51.114;6.900;2023-02-15T01:33:37;102600.94;;;3.42
37452;BMP280;23314;51.114;6.900;2023-02-15T01:36:03;102602.03;;;3.41
37452;BMP280;23314;51.114;6.900;2023-02-15T01:38:28;102599.38;;;3.41
37452;BMP280;23314;51.114;6.900;2023-02-15T01:40:54;102598.13;;;3.39
37452;BMP280;23314;51.114;6.900;2023-02-15T01:43:42;102597.34;;;3.38
37452;BMP280;23314;51.114;6.900;2023-02-15T01:46:09;102593.16;;;3.37
37452;BMP280;23314;51.114;6.900;2023-02-15T01:48:44;102582.91;;;3.35
37452;BMP280;23314;51.114;6.900;2023-02-15T01:51:10;102580.28;;;3.35
37452;BMP280;23314;51.114;6.900;2023-02-15T01:53:52;102583.38;;;3.38
37452;BMP280;23314;51.114;6.900;2023-02-15T01:56:22;102577.16;;;3.33
37452;BMP280;23314;51.114;6.900;2023-02-15T01:58:49;102585.38;;;3.32
37452;BMP280;23314;51.114;6.900;2023-02-15T02:01:17;102576.19;;;3.29
37452;BMP280;23314;51.114;6.900;2023-02-15T02:04:00;102577.59;;;3.27
37452;BMP280;23314;51.114;6.900;2023-02-15T02:06:27;102581.31;;;3.26
37452;BMP280;23314;51.114;6.900;2023-02-15T02:08:54;102578.69;;;3.26
37452;BMP280;23314;51.114;6.900;2023-02-15T02:11:19;102573.72;;;3.24
37452;BMP280;23314;51.114;6.900;2023-02-15T02:13:45;102572.16;;;3.23
37452;BMP280;23314;51.114;6.900;2023-02-15T02:16:21;102562.19;;;3.20
37452;BMP280;23314;51.114;6.900;2023-02-15T02:19:11;102561.72;;;3.18
37452;BMP280;23314;51.114;6.900;2023-02-15T02:25:10;102553.16;;;3.12
37452;BMP280;23314;51.114;6.900;2023-02-15T02:27:44;102554.50;;;3.10
37452;BMP280;23314;51.114;6.900;2023-02-15T02:35:42;102544.88;;;3.05
37452;BMP280;23314;51.114;6.900;2023-02-15T02:39:28;102545.16;;;3.03
37452;BMP280;23314;51.114;6.900;2023-02-15T02:41:35;102540.81;;;2.99
37452;BMP280;23314;51.114;6.900;2023-02-15T02:47:19;102537.19;;;2.95
37452;BMP280;23314;51.114;6.900;2023-02-15T02:49:46;102530.09;;;2.95
37452;BMP280;23314;51.114;6.900;2023-02-15T02:55:05;102525.41;;;2.92
37452;BMP280;23314;51.114;6.900;2023-02-15T02:57:32;102524.13;;;2.89
37452;BMP280;23314;51.114;6.900;2023-02-15T02:59:59;102516.41;;;2.93
37452;BMP280;23314;51.114;6.900;2023-02-15T03:02:32;102519.34;;;2.92
37452;BMP280;23314;51.114;6.900;2023-02-15T03:05:03;102512.50;;;2.91
37452;BMP280;23314;51.114;6.900;2023-02-15T03:07:32;102510.19;;;2.89
37452;BMP280;23314;51.114;6.900;2023-02-15T03:10:00;102500.72;;;2.88
37452;BMP280;23314;51.114;6.900;2023-02-15T03:12:29;102501.03;;;2.86
37452;BMP280;23314;51.114;6.900;2023-02-15T03:15:03;102501.31;;;2.85
37452;BMP280;23314;51.114;6.900;2023-02-15T03:17:31;102511.69;;;2.81
37452;BMP280;23314;51.114;6.900;2023-02-15T03:20:07;102504.84;;;2.80
37452;BMP280;23314;51.114;6.900;2023-02-15T03:22:36;102498.00;;;2.79
37452;BMP280;23314;51.114;6.900;2023-02-15T03:25:10;102498.28;;;2.78
37452;BMP280;23314;51.114;6.900;2023-02-15T03:27:40;102489.13;;;2.75
37452;BMP280;23314;51.114;6.900;2023-02-15T03:30:08;102498.91;;;2.75
37452;BMP280;23314;51.114;6.900;2023-02-15T03:32:37;102491.59;;;2.71
37452;BMP280;23314;51.114;6.900;2023-02-15T03:35:04;102494.50;;;2.70
37452;BMP280;23314;51.114;6.900;2023-02-15T03:37:36;102493.75;;;2.69
37452;BMP280;23314;51.114;6.900;2023-02-15T03:40:11;102490.94;;;2.66
37452;BMP280;23314;51.114;6.900;2023-02-15T03:43:04;102493.56;;;2.66
37452;BMP280;23314;51.114;6.900;2023-02-15T03:45:35;102490.47;;;2.64
37452;BMP280;23314;51.114;6.900;2023-02-15T03:48:02;102494.97;;;2.63
37452;BMP280;23314;51.114;6.900;2023-02-15T03:50:30;102488.91;;;2.63
37452;BMP280;23314;51.114;6.900;2023-02-15T03:53:17;102490.47;;;2.64
37452;BMP280;23314;51.114;6.900;2023-02-15T03:55:54;102487.06;;;2.63
37452;BMP280;23314;51.114;6.900;2023-02-15T03:58:19;102490.47;;;2.64
37452;BMP280;23314;51.114;6.900;2023-02-15T04:01:05;102492.63;;;2.62
37452;BMP280;23314;51.114;6.900;2023-02-15T04:04:00;102498.97;;;2.61
37452;BMP280;23314;51.114;6.900;2023-02-15T04:06:27;102487.16;;;2.58
37452;BMP280;23314;51.114;6.900;2023-02-15T04:08:52;102494.78;;;2.60
37452;BMP280;23314;51.114;6.900;2023-02-15T04:11:36;102490.88;;;2.57
37452;BMP280;23314;51.114;6.900;2023-02-15T04:14:02;102487.47;;;2.56
37452;BMP280;23314;51.114;6.900;2023-02-15T04:16:47;102489.13;;;2.52
37452;BMP280;23314;51.114;6.900;2023-02-15T04:19:12;102490.69;;;2.53
37452;BMP280;23314;51.114;6.900;2023-02-15T04:21:56;102485.72;;;2.52
37452;BMP280;23314;51.114;6.900;2023-02-15T04:24:40;102479.97;;;2.50
37452;BMP280;23314;51.114;6.900;2023-02-15T04:27:24;102486.00;;;2.50
37452;BMP280;23314;51.114;6.900;2023-02-15T04:29:49;102489.44;;;2.51
37452;BMP280;23314;51.114;6.900;2023-02-15T04:32:15;102491.75;;;2.52
37452;BMP280;23314;51.114;6.900;2023-02-15T04:34:40;102499.50;;;2.49
37452;BMP280;23314;51.114;6.900;2023-02-15T04:37:05;102497.13;;;2.47
37452;BMP280;23314;51.114;6.900;2023-02-15T04:39:31;102497.44;;;2.46
37452;BMP280;23314;51.114;6.900;2023-02-15T04:41:57;102494.31;;;2.43
37452;BMP280;23314;51.114;6.900;2023-02-15T04:44:22;102495.69;;;2.41
37452;BMP280;23314;51.114;6.900;2023-02-15T04:46:48;102484.69;;;2.39
37452;BMP280;23314;51.114;6.900;2023-02-15T04:49:13;102486.53;;;2.38
37452;BMP280;23314;51.114;6.900;2023-02-15T04:51:39;102486.34;;;2.35
37452;BMP280;23314;51.114;6.900;2023-02-15T04:54:04;102474.56;;;2.32
37452;BMP280;23314;51.114;6.900;2023-02-15T04:56:29;102474.88;;;2.31
37452;BMP280;23314;51.114;6.900;2023-02-15T04:58:55;102477.50;;;2.31
37452;BMP280;23314;51.114;6.900;2023-02-15T05:01:20;102474.38;;;2.29
37452;BMP280;23314;51.114;6.900;2023-02-15T05:03:45;102474.69;;;2.27
37452;BMP280;23314;51.114;6.900;2023-02-15T05:06:11;102467.84;;;2.26
37452;BMP280;23314;51.114;6.900;2023-02-15T05:08:36;102463.66;;;2.25
37452;BMP280;23314;51.114;6.900;2023-02-15T05:11:01;102460.53;;;2.23
37452;BMP280;23314;51.114;6.900;2023-02-15T05:13:27;102463.16;;;2.23
37452;BMP280;23314;51.114;6.900;2023-02-15T05:15:52;102467.63;;;2.22
37452;BMP280;23314;51.114;6.900;2023-02-15T05:18:19;102472.41;;;2.20
37452;BMP280;23314;51.114;6.900;2023-02-15T05:20:45;102473.22;;;2.21
37452;BMP280;23314;51.114;6.900;2023-02-15T05:23:11;102475.63;;;2.17
37452;BMP280;23314;51.114;6.900;2023-02-15T05:25:37;102473.81;;;2.18
37452;BMP280;23314;51.114;6.900;2023-02-15T05:28:22;102462.28;;;2.14
37452;BMP280;23314;51.114;6.900;2023-02-15T05:30:49;102458.91;;;2.13
37452;BMP280;23314;51.114;6.900;2023-02-15T05:33:16;102463.69;;;2.11
37452;BMP280;23314;51.114;6.900;2023-02-15T05:35:41;102457.91;;;2.09
37452;BMP280;23314;51.114;6.900;2023-02-15T05:38:07;102465.03;;;2.08
37452;BMP280;23314;51.114;6.900;2023-02-15T05:40:33;102466.88;;;2.08
37452;BMP280;23314;51.114;6.900;2023-02-15T05:42:58;102456.94;;;2.05
37452;BMP280;23314;51.114;6.900;2023-02-15T05:45:23;102453.53;;;2.04
37452;BMP280;23314;51.114;6.900;2023-02-15T05:47:49;102455.69;;;2.02
37452;BMP280;23314;51.114;6.900;2023-02-15T05:50:14;102455.97;;;2.01
37452;BMP280;23314;51.114;6.900;2023-02-15T05:52:40;102455.97;;;2.01
37452;BMP280;23314;51.114;6.900;2023-02-15T05:55:06;102457.84;;;2.00
37452;BMP280;23314;51.114;6.900;2023-02-15T05:57:32;102447.56;;;1.99
37452;BMP280;23314;51.114;6.900;2023-02-15T05:59:57;102457.03;;;2.00
37452;BMP280;23314;51.114;6.900;2023-02-15T06:02:22;102446.50;;;2.00
37452;BMP280;23314;51.114;6.900;2023-02-15T06:04:48;102456.75;;;2.01
37452;BMP280;23314;51.114;6.900;2023-02-15T06:07:13;102453.34;;;2.01
37452;BMP280;23314;51.114;6.900;2023-02-15T06:09:38;102455.19;;;2.00
37452;BMP280;23314;51.114;6.900;2023-02-15T06:12:04;102455.97;;;2.01
37452;BMP280;23314;51.114;6.900;2023-02-15T06:14:29;102448.38;;;1.99
37452;BMP280;23314;51.114;6.900;2023-02-15T06:16:55;102455.47;;;1.99
37452;BMP280;23314;51.114;6.900;2023-02-15T06:19:20;102453.91;;;1.97
37452;BMP280;23314;51.114;6.900;2023-02-15T06:21:46;102459.66;;;2.00
37452;BMP280;23314;51.114;6.900;2023-02-15T06:24:11;102458.41;;;1.97
37452;BMP280;23314;51.114;6.900;2023-02-15T06:26:36;102461.31;;;1.95
37452;BMP280;23314;51.114;6.900;2023-02-15T06:29:02;102461.31;;;1.95
37452;BMP280;23314;51.114;6.900;2023-02-15T06:31:28;102466.59;;;1.95
37452;BMP280;23314;51.114;6.900;2023-02-15T06:33:54;102474.78;;;1.94
37452;BMP280;23314;51.114;6.900;2023-02-15T06:36:26;102479.09;;;1.90
37452;BMP280;23314;51.114;6.900;2023-02-15T06:38:52;102477.53;;;1.89
37452;BMP280;23314;51.114;6.900;2023-02-15T06:41:17;102467.00;;;1.89
37452;BMP280;23314;51.114;6.900;2023-02-15T06:43:42;102481.44;;;1.91
37452;BMP280;23314;51.114;6.900;2023-02-15T06:46:07;102472.75;;;1.91
37452;BMP280;23314;51.114;6.900;2023-02-15T06:48:33;102480.34;;;1.92
37452;BMP280;23314;51.114;6.900;2023-02-15T06:50:58;102473.22;;;1.93
37452;BMP280;23314;51.114;6.900;2023-02-15T06:53:23;102482.69;;;1.94
37452;BMP280;23314;51.114;6.900;2023-02-15T06:55:48;102472.91;;;1.94
37452;BMP280;23314;51.114;6.900;2023-02-15T06:58:14;102470.00;;;1.96
37452;BMP280;23314;51.114;6.900;2023-02-15T07:00:39;102469.72;;;1.97
37452;BMP280;23314;51.114;6.900;2023-02-15T07:03:04;102466.81;;;1.99
37452;BMP280;23314;51.114;6.900;2023-02-15T07:05:33;102465.44;;;2.02
37452;BMP280;23314;51.114;6.900;2023-02-15T07:07:59;102469.34;;;2.04
37452;BMP280;23314;51.114;6.900;2023-02-15T07:10:26;102466.59;;;2.09
37452;BMP280;23314;51.114;6.900;2023-02-15T07:12:52;102459.38;;;2.15
37452;BMP280;23314;51.114;6.900;2023-02-15T07:15:19;102459.25;;;2.20
37452;BMP280;23314;51.114;6.900;2023-02-15T07:17:46;102456.53;;;2.25
37452;BMP280;23314;51.114;6.900;2023-02-15T07:20:19;102468.78;;;2.30
37452;BMP280;23314;51.114;6.900;2023-02-15T07:22:46;102459.19;;;2.34
37452;BMP280;23314;51.114;6.900;2023-02-15T07:25:12;102462.22;;;2.41
37452;BMP280;23314;51.114;6.900;2023-02-15T07:27:38;102467.09;;;2.48
37452;BMP280;23314;51.114;6.900;2023-02-15T07:30:05;102456.13;;;2.55
37452;BMP280;23314;51.114;6.900;2023-02-15T07:32:32;102451.53;;;2.61
37452;BMP280;23314;51.114;6.900;2023-02-15T07:34:58;102439.78;;;2.67
37452;BMP280;23314;51.114;6.900;2023-02-15T07:37:24;102437.00;;;2.72
37452;BMP280;23314;51.114;6.900;2023-02-15T07:39:49;102429.47;;;2.79
37452;BMP280;23314;51.114;6.900;2023-02-15T07:42:15;102428.28;;;2.85
37452;BMP280;23314;51.114;6.900;2023-02-15T07:44:40;102418.38;;;2.91
37452;BMP280;23314;51.114;6.900;2023-02-15T07:47:05;102421.38;;;2.98
37452;BMP280;23314;51.114;6.900;2023-02-15T07:49:31;102410.66;;;3.03
37452;BMP280;23314;51.114;6.900;2023-02-15T07:51:56;102415.53;;;3.10
37452;BMP280;23314;51.114;6.900;2023-02-15T07:54:21;102406.88;;;3.18
37452;BMP280;23314;51.114;6.900;2023-02-15T07:56:47;102404.91;;;3.24
37452;BMP280;23314;51.114;6.900;2023-02-15T07:59:12;102402.56;;;3.31
37452;BMP280;23314;51.114;6.900;2023-02-15T08:01:38;102397.91;;;3.37
37452;BMP280;23314;51.114;6.900;2023-02-15T08:04:05;102396.41;;;3.45
37452;BMP280;23314;51.114;6.900;2023-02-15T08:06:33;102405.72;;;3.51
37452;BMP280;23314;51.114;6.900;2023-02-15T08:08:59;102405.75;;;3.60
37452;BMP280;23314;51.114;6.900;2023-02-15T08:11:28;102410.13;;;3.64
37452;BMP280;23314;51.114;6.900;2023-02-15T08:16:36;102410.00;;;3.78
37452;BMP280;23314;51.114;6.900;2023-02-15T08:19:10;102413.38;;;3.88
37452;BMP280;23314;51.114;6.900;2023-02-15T08:21:38;102403.94;;;3.95
37452;BMP280;23314;51.114;6.900;2023-02-15T08:24:05;102405.34;;;4.02
37452;BMP280;23314;51.114;6.900;2023-02-15T08:26:31;102410.91;;;4.09
37452;BMP280;23314;51.114;6.900;2023-02-15T08:28:58;102411.88;;;4.13
37452;BMP280;23314;51.114;6.900;2023-02-15T08:31:23;102399.41;;;4.22
37452;BMP280;23314;51.114;6.900;2023-02-15T08:33:50;102402.06;;;4.31
37452;BMP280;23314;51.114;6.900;2023-02-15T08:36:18;102404.22;;;4.38
37452;BMP280;23314;51.114;6.900;2023-02-15T08:38:44;102397.81;;;4.48
37452;BMP280;23314;51.114;6.900;2023-02-15T08:41:21;102385.06;;;4.58
37452;BMP280;23314;51.114;6.900;2023-02-15T08:43:49;102387.97;;;4.66
37452;BMP280;23314;51.114;6.900;2023-02-15T08:46:16;102386.09;;;4.75
37452;BMP280;23314;51.114;6.900;2023-02-15T08:48:43;102384.94;;;4.85
37452;BMP280;23314;51.114;6.900;2023-02-15T08:51:15;102387.13;;;4.92
37452;BMP280;23314;51.114;6.900;2023-02-15T08:53:44;102383.78;;;5.03
37452;BMP280;23314;51.114;6.900;2023-02-15T08:56:10;102387.34;;;5.16
37452;BMP280;23314;51.114;6.900;2023-02-15T08:58:36;102392.09;;;5.23
37452;BMP280;23314;51.114;6.900;2023-02-15T09:01:10;102392.06;;;5.32
37452;BMP280;23314;51.114;6.900;2023-02-15T09:03:36;102392.00;;;5.41
37452;BMP280;23314;51.114;6.900;2023-02-15T09:06:01;102386.00;;;5.53
37452;BMP280;23314;51.114;6.900;2023-02-15T09:08:27;102389.84;;;5.64
37452;BMP280;23314;51.114;6.900;2023-02-15T09:10:53;102381.00;;;5.72
37452;BMP280;23314;51.114;6.900;2023-02-15T09:13:19;102376.75;;;5.80
37452;BMP280;23314;51.114;6.900;2023-02-15T09:15:45;102376.69;;;5.89
37452;BMP280;23314;51.114;6.900;2023-02-15T09:18:11;102382.78;;;6.02
37452;BMP280;23314;51.114;6.900;2023-02-15T09:20:37;102384.72;;;6.13
37452;BMP280;23314;51.114;6.900;2023-02-15T09:23:02;102387.06;;;6.27
37452;BMP280;23314;51.114;6.900;2023-02-15T09:25:28;102379.91;;;6.40
37452;BMP280;23314;51.114;6.900;2023-02-15T09:27:53;102377.75;;;6.55
37452;BMP280;23314;51.114;6.900;2023-02-15T09:30:19;102378.84;;;6.66
37452;BMP280;23314;51.114;6.900;2023-02-15T09:32:44;102382.25;;;6.79
37452;BMP280;23314;51.114;6.900;2023-02-15T09:35:11;102381.47;;;6.91
37452;BMP280;23314;51.114;6.900;2023-02-15T09:37:37;102382.16;;;7.00
37452;BMP280;23314;51.114;6.900;2023-02-15T09:40:03;102381.66;;;7.11
37452;BMP280;23314;51.114;6.900;2023-02-15T09:50:48;102385.94;;;7.40
37452;BMP280;23314;51.114;6.900;2023-02-15T09:53:36;102391.13;;;7.49
37452;BMP280;23314;51.114;6.900;2023-02-15T09:56:29;102393.66;;;7.58
37452;BMP280;23314;51.114;6.900;2023-02-15T10:04:27;102384.31;;;7.92
37452;BMP280;23314;51.114;6.900;2023-02-15T10:07:18;102378.06;;;8.00
37452;BMP280;23314;51.114;6.900;2023-02-15T10:13:00;102390.53;;;8.12
37452;BMP280;23314;51.114;6.900;2023-02-15T10:15:58;102378.50;;;8.18
37452;BMP280;23314;51.114;6.900;2023-02-15T10:18:50;102383.75;;;8.31
37452;BMP280;23314;51.114;6.900;2023-02-15T10:27:11;102373.84;;;8.63
37452;BMP280;23314;51.114;6.900;2023-02-15T10:29:39;102372.97;;;8.75
37452;BMP280;23314;51.114;6.900;2023-02-15T10:32:23;102370.47;;;8.82
37452;BMP280;23314;51.114;6.900;2023-02-15T10:35:01;102364.94;;;8.91
37452;BMP280;23314;51.114;6.900;2023-02-15T10:45:48;102374.41;;;9.28
37452;BMP280;23314;51.114;6.900;2023-02-15T10:48:25;102377.28;;;9.39
37452;BMP280;23314;51.114;6.900;2023-02-15T10:51:00;102364.53;;;9.48
37452;BMP280;23314;51.114;6.900;2023-02-15T10:53:54;102357.03;;;9.54
37452;BMP280;23314;51.114;6.900;2023-02-15T11:01:56;102358.25;;;9.79
37452;BMP280;23314;51.114;6.900;2023-02-15T11:04:39;102341.59;;;9.86
37452;BMP280;23314;51.114;6.900;2023-02-15T11:09:49;102348.66;;;9.98
37452;BMP280;23314;51.114;6.900;2023-02-15T11:12:18;102350.38;;;10.10
37452;BMP280;23314;51.114;6.900;2023-02-15T11:14:46;102341.34;;;10.18
37452;BMP280;23314;51.114;6.900;2023-02-15T11:17:19;102336.53;;;10.27
37452;BMP280;23314;51.114;6.900;2023-02-15T11:22:33;102331.66;;;10.33
37452;BMP280;23314;51.114;6.900;2023-02-15T11:25:00;102332.53;;;10.41
37452;BMP280;23314;51.114;6.900;2023-02-15T11:27:31;102332.59;;;10.48
37452;BMP280;23314;51.114;6.900;2023-02-15T11:30:13;102328.81;;;10.49
37452;BMP280;23314;51.114;6.900;2023-02-15T11:32:42;102334.66;;;10.58
37452;BMP280;23314;51.114;6.900;2023-02-15T11:37:44;102327.41;;;10.89
37452;BMP280;23314;51.114;6.900;2023-02-15T11:40:47;102326.81;;;11.03
37452;BMP280;23314;51.114;6.900;2023-02-15T11:43:17;102331.00;;;11.04
37452;BMP280;23314;51.114;6.900;2023-02-15T11:45:45;102321.56;;;11.14
37452;BMP280;23314;51.114;6.900;2023-02-15T11:48:12;102314.47;;;11.29
37452;BMP280;23314;51.114;6.900;2023-02-15T11:50:38;102306.94;;;11.42
37452;BMP280;23314;51.114;6.900;2023-02-15T11:53:10;102302.47;;;11.53
37452;BMP280;23314;51.114;6.900;2023-02-15T11:55:36;102300.25;;;11.63
37452;BMP280;23314;51.114;6.900;2023-02-15T12:01:04;102296.53;;;11.82
37452;BMP280;23314;51.114;6.900;2023-02-15T12:03:39;102288.19;;;11.90
37452;BMP280;23314;51.114;6.900;2023-02-15T12:06:20;102280.63;;;12.00
37452;BMP280;23314;51.114;6.900;2023-02-15T12:08:53;102277.63;;;12.09
37452;BMP280;23314;51.114;6.900;2023-02-15T12:11:28;102279.97;;;12.17
37452;BMP280;23314;51.114;6.900;2023-02-15T12:14:01;102269.31;;;12.25
37452;BMP280;23314;51.114;6.900;2023-02-15T12:16:34;102271.22;;;12.31
37452;BMP280;23314;51.114;6.900;2023-02-15T12:19:04;102263.63;;;12.44
37452;BMP280;23314;51.114;6.900;2023-02-15T12:21:33;102260.59;;;12.53
37452;BMP280;23314;51.114;6.900;2023-02-15T12:24:22;102257.19;;;12.60
37452;BMP280;23314;51.114;6.900;2023-02-15T12:27:20;102259.50;;;12.61
37452;BMP280;23314;51.114;6.900;2023-02-15T12:30:32;102246.88;;;12.54
37452;BMP280;23314;51.114;6.900;2023-02-15T12:33:14;102250.31;;;12.59
37452;BMP280;23314;51.114;6.900;2023-02-15T12:35:42;102238.06;;;12.65
37452;BMP280;23314;51.114;6.900;2023-02-15T12:40:37;102240.41;;;12.81
37452;BMP280;23314;51.114;6.900;2023-02-15T12:43:02;102236.97;;;12.91
37452;BMP280;23314;51.114;6.900;2023-02-15T12:45:36;102239.63;;;12.98
37452;BMP280;23314;51.114;6.900;2023-02-15T12:48:18;102233.53;;;13.05
37452;BMP280;23314;51.114;6.900;2023-02-15T12:50:45;102231.63;;;13.13
37452;BMP280;23314;51.114;6.900;2023-02-15T12:53:35;102231.63;;;13.20
37452;BMP280;23314;51.114;6.900;2023-02-15T12:56:03;102214.78;;;13.27
37452;BMP280;23314;51.114;6.900;2023-02-15T12:58:30;102222.81;;;13.30
37452;BMP280;23314;51.114;6.900;2023-02-15T13:01:10;102217.81;;;13.32
37452;BMP280;23314;51.114;6.900;2023-02-15T13:06:17;102217.84;;;13.29
37452;BMP280;23314;51.114;6.900;2023-02-15T13:08:48;102215.88;;;13.40
37452;BMP280;23314;51.114;6.900;2023-02-15T13:11:20;102206.69;;;13.48
37452;BMP280;23314;51.114;6.900;2023-02-15T13:13:58;102205.53;;;13.57
37452;BMP280;23314;51.114;6.900;2023-02-15T13:16:42;102198.63;;;13.63
37452;BMP280;23314;51.114;6.900;2023-02-15T13:19:15;102184.41;;;13.66
37452;BMP280;23314;51.114;6.900;2023-02-15T13:21:45;102185.94;;;13.70
37452;BMP280;23314;51.114;6.900;2023-02-15T13:25:09;102187.06;;;13.77
37452;BMP280;23314;51.114;6.900;2023-02-15T13:27:20;102190.91;;;13.76
37452;BMP280;23314;51.114;6.900;2023-02-15T13:29:52;102182.06;;;13.79
37452;BMP280;23314;51.114;6.900;2023-02-15T13:32:24;102182.41;;;13.84
37452;BMP280;23314;51.114;6.900;2023-02-15T13:34:51;102173.63;;;13.87
37452;BMP280;23314;51.114;6.900;2023-02-15T13:37:30;102172.44;;;13.92
37452;BMP280;23314;51.114;6.900;2023-02-15T13:42:40;102167.00;;;14.07
37452;BMP280;23314;51.114;6.900;2023-02-15T13:45:20;102165.44;;;14.13
37452;BMP280;23314;51.114;6.900;2023-02-15T13:56:40;102146.19;;;14.29
37452;BMP280;23314;51.114;6.900;2023-02-15T13:59:23;102150.41;;;14.26
37452;BMP280;23314;51.114;6.900;2023-02-15T14:01:57;102144.63;;;14.31
37452;BMP280;23314;51.114;6.900;2023-02-15T14:12:42;102141.50;;;14.40
37452;BMP280;23314;51.114;6.900;2023-02-15T14:20:49;102135.63;;;14.56
37452;BMP280;23314;51.114;6.900;2023-02-15T14:23:29;102131.41;;;14.55
37452;BMP280;23314;51.114;6.900;2023-02-15T14:26:03;102131.41;;;14.55
37452;BMP280;23314;51.114;6.900;2023-02-15T14:31:15;102130.25;;;14.56
37452;BMP280;23314;51.114;6.900;2023-02-15T14:33:47;102127.56;;;14.56
37452;BMP280;23314;51.114;6.900;2023-02-15T14:36:18;102128.72;;;14.55
37452;BMP280;23314;51.114;6.900;2023-02-15T14:42:19;102124.94;;;14.52
37452;BMP280;23314;51.114;6.900;2023-02-15T14:44:52;102119.56;;;14.52
37452;BMP280;23314;51.114;6.900;2023-02-15T14:47:30;102126.44;;;14.53
37452;BMP280;23314;51.114;6.900;2023-02-15T14:49:56;102125.69;;;14.53
37452;BMP280;23314;51.114;6.900;2023-02-15T14:52:21;102131.41;;;14.55
37452;BMP280;23314;51.114;6.900;2023-02-15T14:59:55;102116.81;;;14.56
37452;BMP280;23314;51.114;6.900;2023-02-15T15:05:24;102120.97;;;14.61
37452;BMP280;23314;51.114;6.900;2023-02-15T15:08:01;102117.19;;;14.58
37452;BMP280;23314;51.114;6.900;2023-02-15T15:10:36;102122.56;;;14.58
37452;BMP280;23314;51.114;6.900;2023-02-15T15:15:56;102123.41;;;14.51
37452;BMP280;23314;51.114;6.900;2023-02-15T15:18:44;102127.25;;;14.47
37452;BMP280;23314;51.114;6.900;2023-02-15T15:21:10;102118.44;;;14.43
37452;BMP280;23314;51.114;6.900;2023-02-15T15:23:41;102123.50;;;14.41
37452;BMP280;23314;51.114;6.900;2023-02-15T15:26:29;102121.22;;;14.32
37452;BMP280;23314;51.114;6.900;2023-02-15T15:28:58;102113.59;;;14.27
37452;BMP280;23314;51.114;6.900;2023-02-15T15:50:17;102130.03;;;13.65
37452;BMP280;23314;51.114;6.900;2023-02-15T15:52:55;102130.44;;;13.60
37452;BMP280;23314;51.114;6.900;2023-02-15T15:55:23;102126.63;;;13.54
37452;BMP280;23314;51.114;6.900;2023-02-15T15:57:53;102134.66;;;13.47
37452;BMP280;23314;51.114;6.900;2023-02-15T16:00:34;102140.06;;;13.40
37452;BMP280;23314;51.114;6.900;2023-02-15T16:03:00;102134.34;;;13.34
37452;BMP280;23314;51.114;6.900;2023-02-15T16:05:26;102129.00;;;13.27
37452;BMP280;23314;51.114;6.900;2023-02-15T16:07:51;102136.28;;;13.19
37452;BMP280;23314;51.114;6.900;2023-02-15T16:12:47;102119.84;;;13.02
37452;BMP280;23314;51.114;6.900;2023-02-15T16:15:15;102124.06;;;12.93
37452;BMP280;23314;51.114;6.900;2023-02-15T16:17:45;102119.88;;;12.81
37452;BMP280;23314;51.114;6.900;2023-02-15T16:20:18;102113.75;;;12.69
37452;BMP280;23314;51.114;6.900;2023-02-15T16:22:46;102125.22;;;12.59
37452;BMP280;23314;51.114;6.900;2023-02-15T16:25:28;102127.88;;;12.48
37452;BMP280;23314;51.114;6.900;2023-02-15T16:27:55;102119.47;;;12.35
37452;BMP280;23314;51.114;6.900;2023-02-15T16:30:30;102124.06;;;12.24
37452;BMP280;23314;51.114;6.900;2023-02-15T16:33:06;102120.97;;;12.11
37452;BMP280;23314;51.114;6.900;2023-02-15T16:35:33;102119.75;;;11.98
37452;BMP280;23314;51.114;6.900;2023-02-15T16:37:59;102117.06;;;11.87